SWR5YW LIRF-LSZH
Flight info
| Callsign | SWR5YW |
|---|---|
| Flight time | 1h 4m |
| Altitude | 38000 |
| Route | SOVAN DCT AMTEL DCT PEPAG DCT CANNE Z651 KELIP |
| Aircraft | A319/M-SDE3FGHIRWY/LB1 |
Departure
| Time | 2026-05-05 14:07 |
|---|---|
| Airport | Rome–Fiumicino Leonardo da Vinci International Airport (LIRF) |
Arrival
| Time | 2026-05-05 15:11 |
|---|---|
| Airport | Zürich Airport (LSZH) |
| Time | Latitude | Longitude | Altitude | Speed | Heading |
|---|---|---|---|---|---|
| 2026-05-05 13:29 | 41.79727 | 12.25641 | 14 ft | 0 kts | 295° |
| 2026-05-05 13:48 | 41.79717 | 12.25670 | 14 ft | 4 kts | 295° |
| 2026-05-05 13:49 | 41.79706 | 12.25703 | 17 ft | 4 kts | 295° |
| 2026-05-05 13:49 | 41.79694 | 12.25736 | 15 ft | 4 kts | 295° |
| 2026-05-05 13:49 | 41.79689 | 12.25750 | 15 ft | 0 kts | 295° |
| 2026-05-05 13:56 | 41.79692 | 12.25744 | 14 ft | 1 kts | 303° |
| 2026-05-05 13:56 | 41.79704 | 12.25734 | 15 ft | 3 kts | 328° |
| 2026-05-05 13:56 | 41.79726 | 12.25734 | 14 ft | 4 kts | 24° |
| 2026-05-05 13:57 | 41.79739 | 12.25766 | 14 ft | 4 kts | 64° |
| 2026-05-05 13:57 | 41.79762 | 12.25798 | 14 ft | 5 kts | 31° |
| 2026-05-05 13:57 | 41.79798 | 12.25819 | 16 ft | 6 kts | 24° |
| 2026-05-05 13:57 | 41.79843 | 12.25826 | 14 ft | 7 kts | 352° |
| 2026-05-05 13:58 | 41.79894 | 12.25836 | 15 ft | 8 kts | 19° |
| 2026-05-05 13:58 | 41.79948 | 12.25868 | 16 ft | 9 kts | 25° |
| 2026-05-05 13:58 | 41.80005 | 12.25905 | 14 ft | 9 kts | 25° |
| 2026-05-05 13:58 | 41.80067 | 12.25944 | 14 ft | 10 kts | 25° |
| 2026-05-05 13:59 | 41.80205 | 12.26028 | 14 ft | 12 kts | 27° |
| 2026-05-05 13:59 | 41.80279 | 12.26075 | 14 ft | 12 kts | 22° |
| 2026-05-05 14:00 | 41.80373 | 12.26197 | 15 ft | 9 kts | 70° |
| 2026-05-05 14:00 | 41.80388 | 12.26251 | 15 ft | 10 kts | 70° |
| 2026-05-05 14:00 | 41.80401 | 12.26302 | 15 ft | 0 kts | 69° |
| 2026-05-05 14:01 | 41.80402 | 12.26305 | 17 ft | 1 kts | 69° |
| 2026-05-05 14:01 | 41.80406 | 12.26318 | 16 ft | 2 kts | 69° |
| 2026-05-05 14:01 | 41.80412 | 12.26339 | 15 ft | 3 kts | 69° |
| 2026-05-05 14:02 | 41.80421 | 12.26370 | 17 ft | 5 kts | 69° |
| 2026-05-05 14:02 | 41.80434 | 12.26419 | 16 ft | 6 kts | 69° |
| 2026-05-05 14:02 | 41.80449 | 12.26473 | 17 ft | 7 kts | 70° |
| 2026-05-05 14:02 | 41.80467 | 12.26539 | 16 ft | 8 kts | 70° |
| 2026-05-05 14:03 | 41.80488 | 12.26616 | 15 ft | 9 kts | 70° |
| 2026-05-05 14:03 | 41.80512 | 12.26702 | 16 ft | 11 kts | 70° |
| 2026-05-05 14:03 | 41.80540 | 12.26806 | 14 ft | 13 kts | 70° |
| 2026-05-05 14:03 | 41.80573 | 12.26926 | 13 ft | 14 kts | 70° |
| 2026-05-05 14:04 | 41.80602 | 12.27023 | 13 ft | 8 kts | 55° |
| 2026-05-05 14:04 | 41.80657 | 12.27047 | 13 ft | 9 kts | 4° |
| 2026-05-05 14:04 | 41.80722 | 12.27054 | 13 ft | 10 kts | 4° |
| 2026-05-05 14:04 | 41.80791 | 12.27049 | 13 ft | 10 kts | 347° |
| 2026-05-05 14:05 | 41.80863 | 12.27014 | 13 ft | 12 kts | 341° |
| 2026-05-05 14:05 | 41.80936 | 12.26981 | 13 ft | 5 kts | 340° |
| 2026-05-05 14:05 | 41.80959 | 12.26938 | 13 ft | 7 kts | 269° |
| 2026-05-05 14:05 | 41.80951 | 12.26907 | 13 ft | 0 kts | 248° |
| 2026-05-05 14:06 | 41.80931 | 12.26841 | 15 ft | 35 kts | 248° |
| 2026-05-05 14:06 | 41.80751 | 12.26176 | 20 ft | 113 kts | 249° |
| 2026-05-05 14:06 | 41.80399 | 12.24925 | 42 ft | 169 kts | 248° |
| 2026-05-05 14:07 | 41.80003 | 12.23415 | 636 ft | 174 kts | 243° |
| 2026-05-05 14:07 | 41.79604 | 12.21879 | 1267 ft | 175 kts | 246° |
| 2026-05-05 14:07 | 41.79280 | 12.20317 | 1963 ft | 176 kts | 259° |
| 2026-05-05 14:07 | 41.79488 | 12.18674 | 2546 ft | 186 kts | 290° |
| 2026-05-05 14:08 | 41.80246 | 12.17255 | 3191 ft | 188 kts | 303° |
| 2026-05-05 14:08 | 41.81088 | 12.15834 | 3564 ft | 204 kts | 304° |
| 2026-05-05 14:08 | 41.81995 | 12.14292 | 3987 ft | 215 kts | 304° |
| 2026-05-05 14:08 | 41.82927 | 12.12711 | 4713 ft | 215 kts | 304° |
| 2026-05-05 14:09 | 41.83908 | 12.11203 | 5460 ft | 217 kts | 314° |
| 2026-05-05 14:09 | 41.84743 | 12.10397 | 5930 ft | 222 kts | 327° |
| 2026-05-05 14:09 | 41.86264 | 12.09607 | 6209 ft | 248 kts | 342° |
| 2026-05-05 14:09 | 41.88001 | 12.08967 | 6462 ft | 270 kts | 342° |
| 2026-05-05 14:10 | 41.89852 | 12.08286 | 6962 ft | 280 kts | 341° |
| 2026-05-05 14:10 | 41.91744 | 12.07590 | 7902 ft | 283 kts | 342° |
| 2026-05-05 14:10 | 41.93654 | 12.06887 | 8883 ft | 286 kts | 341° |
| 2026-05-05 14:10 | 41.95630 | 12.06368 | 9821 ft | 294 kts | 351° |
| 2026-05-05 14:11 | 41.97679 | 12.05970 | 10491 ft | 306 kts | 345° |
| 2026-05-05 14:11 | 41.99824 | 12.05264 | 10837 ft | 329 kts | 340° |
| 2026-05-05 14:11 | 42.02067 | 12.04386 | 11400 ft | 341 kts | 340° |
| 2026-05-05 14:11 | 42.04361 | 12.03462 | 12186 ft | 347 kts | 340° |
| 2026-05-05 14:12 | 42.06689 | 12.02547 | 12997 ft | 352 kts | 340° |
| 2026-05-05 14:12 | 42.09059 | 12.01654 | 13809 ft | 356 kts | 341° |
| 2026-05-05 14:12 | 42.11465 | 12.00782 | 14508 ft | 360 kts | 341° |
| 2026-05-05 14:12 | 42.13899 | 11.99919 | 15214 ft | 363 kts | 341° |
| 2026-05-05 14:13 | 42.16359 | 11.99055 | 15924 ft | 367 kts | 341° |
| 2026-05-05 14:13 | 42.18842 | 11.98183 | 16606 ft | 370 kts | 341° |
| 2026-05-05 14:13 | 42.21347 | 11.97298 | 17305 ft | 374 kts | 341° |
| 2026-05-05 14:13 | 42.23878 | 11.96398 | 18013 ft | 378 kts | 341° |
| 2026-05-05 14:14 | 42.26433 | 11.95486 | 18673 ft | 382 kts | 341° |
| 2026-05-05 14:14 | 42.29010 | 11.94564 | 19282 ft | 385 kts | 341° |
| 2026-05-05 14:14 | 42.31608 | 11.93636 | 19902 ft | 388 kts | 341° |
| 2026-05-05 14:14 | 42.34221 | 11.92704 | 20514 ft | 391 kts | 341° |
| 2026-05-05 14:15 | 42.36859 | 11.91762 | 21130 ft | 393 kts | 341° |
| 2026-05-05 14:15 | 42.39515 | 11.90812 | 21747 ft | 396 kts | 341° |
| 2026-05-05 14:15 | 42.42190 | 11.89851 | 22403 ft | 399 kts | 341° |
| 2026-05-05 14:15 | 42.44920 | 11.88869 | 23041 ft | 402 kts | 341° |
| 2026-05-05 14:16 | 42.47633 | 11.87894 | 23625 ft | 405 kts | 340° |
| 2026-05-05 14:16 | 42.50367 | 11.86913 | 24111 ft | 408 kts | 340° |
| 2026-05-05 14:16 | 42.53117 | 11.85928 | 24572 ft | 410 kts | 340° |
| 2026-05-05 14:16 | 42.55884 | 11.84937 | 25035 ft | 412 kts | 340° |
| 2026-05-05 14:17 | 42.58666 | 11.83935 | 25514 ft | 415 kts | 340° |
| 2026-05-05 14:17 | 42.61458 | 11.82928 | 25969 ft | 417 kts | 340° |
| 2026-05-05 14:17 | 42.64274 | 11.81912 | 26413 ft | 420 kts | 339° |
| 2026-05-05 14:17 | 42.67113 | 11.80886 | 26832 ft | 423 kts | 339° |
| 2026-05-05 14:18 | 42.69958 | 11.79857 | 27262 ft | 425 kts | 339° |
| 2026-05-05 14:18 | 42.72827 | 11.78817 | 27687 ft | 428 kts | 339° |
| 2026-05-05 14:18 | 42.75711 | 11.77769 | 28107 ft | 430 kts | 339° |
| 2026-05-05 14:18 | 42.78613 | 11.76714 | 28530 ft | 433 kts | 339° |
| 2026-05-05 14:19 | 42.81534 | 11.75658 | 28932 ft | 435 kts | 339° |
| 2026-05-05 14:19 | 42.84463 | 11.74599 | 29318 ft | 438 kts | 339° |
| 2026-05-05 14:19 | 42.87417 | 11.73527 | 29679 ft | 440 kts | 339° |
| 2026-05-05 14:19 | 42.90387 | 11.72450 | 30059 ft | 443 kts | 339° |
| 2026-05-05 14:20 | 42.93372 | 11.71365 | 30351 ft | 445 kts | 339° |
| 2026-05-05 14:20 | 42.96370 | 11.70272 | 30663 ft | 447 kts | 338° |
| 2026-05-05 14:20 | 42.99378 | 11.69171 | 30988 ft | 448 kts | 338° |
| 2026-05-05 14:20 | 43.02396 | 11.68067 | 31313 ft | 450 kts | 338° |
| 2026-05-05 14:21 | 43.05426 | 11.66958 | 31704 ft | 451 kts | 338° |
| 2026-05-05 14:21 | 43.08457 | 11.65847 | 32131 ft | 451 kts | 338° |
| 2026-05-05 14:21 | 43.11475 | 11.64743 | 32601 ft | 449 kts | 338° |
| 2026-05-05 14:21 | 43.14495 | 11.63640 | 33083 ft | 447 kts | 337° |
| 2026-05-05 14:22 | 43.17496 | 11.62542 | 33542 ft | 445 kts | 337° |
| 2026-05-05 14:22 | 43.20456 | 11.61380 | 34000 ft | 439 kts | 332° |
| 2026-05-05 14:22 | 43.23230 | 11.59735 | 34410 ft | 429 kts | 324° |
| 2026-05-05 14:22 | 43.25795 | 11.57608 | 34779 ft | 424 kts | 320° |
| 2026-05-05 14:23 | 43.28279 | 11.55432 | 35099 ft | 425 kts | 320° |
| 2026-05-05 14:23 | 43.30773 | 11.53257 | 35420 ft | 425 kts | 320° |
| 2026-05-05 14:23 | 43.33270 | 11.51085 | 35744 ft | 425 kts | 320° |
| 2026-05-05 14:23 | 43.35766 | 11.48914 | 36074 ft | 424 kts | 320° |
| 2026-05-05 14:24 | 43.38261 | 11.46746 | 36398 ft | 424 kts | 320° |
| 2026-05-05 14:24 | 43.40754 | 11.44576 | 36715 ft | 424 kts | 321° |
| 2026-05-05 14:24 | 43.43245 | 11.42404 | 37035 ft | 424 kts | 321° |
| 2026-05-05 14:24 | 43.45733 | 11.40232 | 37345 ft | 423 kts | 321° |
| 2026-05-05 14:25 | 43.48222 | 11.38054 | 37606 ft | 425 kts | 321° |
| 2026-05-05 14:25 | 43.50713 | 11.35867 | 37852 ft | 426 kts | 321° |
| 2026-05-05 14:25 | 43.53213 | 11.33667 | 37987 ft | 426 kts | 321° |
| 2026-05-05 14:25 | 43.55712 | 11.31467 | 38004 ft | 426 kts | 321° |
| 2026-05-05 14:26 | 43.60706 | 11.27069 | 37999 ft | 425 kts | 320° |
| 2026-05-05 14:26 | 43.65696 | 11.22665 | 38002 ft | 426 kts | 321° |
| 2026-05-05 14:27 | 43.70689 | 11.18251 | 38001 ft | 428 kts | 321° |
| 2026-05-05 14:27 | 43.75717 | 11.13803 | 38005 ft | 430 kts | 321° |
| 2026-05-05 14:28 | 43.80756 | 11.09347 | 38005 ft | 429 kts | 321° |
| 2026-05-05 14:28 | 43.85787 | 11.04881 | 38005 ft | 429 kts | 321° |
| 2026-05-05 14:29 | 43.90815 | 11.00409 | 38007 ft | 430 kts | 321° |
| 2026-05-05 14:29 | 43.95854 | 10.95914 | 37993 ft | 431 kts | 321° |
| 2026-05-05 14:30 | 44.00936 | 10.91372 | 37996 ft | 432 kts | 321° |
| 2026-05-05 14:30 | 44.05979 | 10.86845 | 37999 ft | 432 kts | 321° |
| 2026-05-05 14:31 | 44.11034 | 10.82301 | 38042 ft | 433 kts | 321° |
| 2026-05-05 14:31 | 44.16100 | 10.77750 | 38015 ft | 434 kts | 321° |
| 2026-05-05 14:32 | 44.21171 | 10.73183 | 38017 ft | 434 kts | 321° |
| 2026-05-05 14:32 | 44.26241 | 10.68604 | 38018 ft | 435 kts | 321° |
| 2026-05-05 14:33 | 44.31326 | 10.64002 | 38010 ft | 435 kts | 321° |
| 2026-05-05 14:33 | 44.36402 | 10.59401 | 38002 ft | 435 kts | 321° |
| 2026-05-05 14:34 | 44.41481 | 10.54776 | 38017 ft | 436 kts | 321° |
| 2026-05-05 14:34 | 44.46562 | 10.50144 | 38014 ft | 436 kts | 321° |
| 2026-05-05 14:35 | 44.51647 | 10.45511 | 38025 ft | 436 kts | 321° |
| 2026-05-05 14:35 | 44.56731 | 10.40862 | 38005 ft | 437 kts | 321° |
| 2026-05-05 14:36 | 44.61821 | 10.36201 | 37995 ft | 437 kts | 321° |
| 2026-05-05 14:36 | 44.66907 | 10.31529 | 37990 ft | 437 kts | 321° |
| 2026-05-05 14:37 | 44.71993 | 10.26834 | 37980 ft | 437 kts | 321° |
| 2026-05-05 14:37 | 44.77088 | 10.22136 | 37993 ft | 438 kts | 321° |
| 2026-05-05 14:38 | 44.82225 | 10.17387 | 37979 ft | 439 kts | 321° |
| 2026-05-05 14:38 | 44.87324 | 10.12660 | 37976 ft | 439 kts | 321° |
| 2026-05-05 14:39 | 44.92435 | 10.07921 | 37975 ft | 440 kts | 321° |
| 2026-05-05 14:39 | 44.97548 | 10.03171 | 37978 ft | 440 kts | 321° |
| 2026-05-05 14:40 | 45.02653 | 9.98406 | 37995 ft | 440 kts | 321° |
| 2026-05-05 14:40 | 45.07766 | 9.93627 | 37980 ft | 441 kts | 321° |
| 2026-05-05 14:41 | 45.12882 | 9.88833 | 37976 ft | 441 kts | 321° |
| 2026-05-05 14:41 | 45.18001 | 9.84027 | 37980 ft | 441 kts | 321° |
| 2026-05-05 14:42 | 45.22251 | 9.80027 | 37975 ft | 442 kts | 321° |
| 2026-05-05 14:42 | 45.27374 | 9.75202 | 37996 ft | 442 kts | 321° |
| 2026-05-05 14:43 | 45.32523 | 9.70344 | 38064 ft | 442 kts | 321° |
| 2026-05-05 14:43 | 45.37645 | 9.65491 | 38093 ft | 442 kts | 320° |
| 2026-05-05 14:44 | 45.42766 | 9.60622 | 38121 ft | 443 kts | 320° |
| 2026-05-05 14:44 | 45.47887 | 9.55750 | 38147 ft | 443 kts | 320° |
| 2026-05-05 14:45 | 45.53015 | 9.50869 | 38149 ft | 443 kts | 320° |
| 2026-05-05 14:45 | 45.58144 | 9.45982 | 38155 ft | 443 kts | 320° |
| 2026-05-05 14:46 | 45.63268 | 9.41079 | 38164 ft | 444 kts | 320° |
| 2026-05-05 14:46 | 45.65842 | 9.38608 | 37927 ft | 446 kts | 320° |
| 2026-05-05 14:46 | 45.68420 | 9.36131 | 37534 ft | 446 kts | 320° |
| 2026-05-05 14:47 | 45.70994 | 9.33658 | 37263 ft | 447 kts | 320° |
| 2026-05-05 14:47 | 45.73578 | 9.31175 | 36996 ft | 447 kts | 320° |
| 2026-05-05 14:47 | 45.76168 | 9.28680 | 36736 ft | 448 kts | 320° |
| 2026-05-05 14:47 | 45.78782 | 9.26154 | 36475 ft | 448 kts | 319° |
| 2026-05-05 14:48 | 45.81371 | 9.23650 | 36221 ft | 449 kts | 319° |
| 2026-05-05 14:48 | 45.83963 | 9.21143 | 35973 ft | 449 kts | 319° |
| 2026-05-05 14:48 | 45.86555 | 9.18634 | 35734 ft | 450 kts | 319° |
| 2026-05-05 14:48 | 45.89127 | 9.16143 | 35479 ft | 451 kts | 319° |
| 2026-05-05 14:49 | 45.91728 | 9.13624 | 35229 ft | 451 kts | 319° |
| 2026-05-05 14:49 | 45.94328 | 9.11101 | 35020 ft | 451 kts | 318° |
| 2026-05-05 14:49 | 45.96959 | 9.08541 | 34775 ft | 452 kts | 318° |
| 2026-05-05 14:49 | 45.99560 | 9.05991 | 34528 ft | 452 kts | 317° |
| 2026-05-05 14:50 | 46.02129 | 9.03391 | 34300 ft | 451 kts | 316° |
| 2026-05-05 14:50 | 46.04671 | 9.00745 | 34088 ft | 452 kts | 316° |
| 2026-05-05 14:50 | 46.07214 | 8.98060 | 33961 ft | 452 kts | 315° |
| 2026-05-05 14:50 | 46.09745 | 8.95378 | 34031 ft | 453 kts | 316° |
| 2026-05-05 14:51 | 46.14981 | 8.90245 | 34027 ft | 463 kts | 326° |
| 2026-05-05 14:51 | 46.17990 | 8.88456 | 34031 ft | 474 kts | 336° |
| 2026-05-05 14:51 | 46.21241 | 8.87425 | 34029 ft | 484 kts | 347° |
| 2026-05-05 14:52 | 46.24596 | 8.86922 | 33895 ft | 487 kts | 348° |
| 2026-05-05 14:52 | 46.27965 | 8.86426 | 33608 ft | 486 kts | 348° |
| 2026-05-05 14:52 | 46.31333 | 8.85926 | 33339 ft | 486 kts | 348° |
| 2026-05-05 14:52 | 46.34699 | 8.85422 | 33071 ft | 487 kts | 348° |
| 2026-05-05 14:53 | 46.38066 | 8.84918 | 32841 ft | 486 kts | 348° |
| 2026-05-05 14:53 | 46.41424 | 8.84412 | 32569 ft | 486 kts | 348° |
| 2026-05-05 14:53 | 46.44790 | 8.83900 | 32298 ft | 485 kts | 348° |
| 2026-05-05 14:53 | 46.48140 | 8.83388 | 32028 ft | 484 kts | 348° |
| 2026-05-05 14:54 | 46.51484 | 8.82880 | 31769 ft | 482 kts | 348° |
| 2026-05-05 14:54 | 46.54853 | 8.82376 | 31514 ft | 479 kts | 348° |
| 2026-05-05 14:54 | 46.58160 | 8.81884 | 31260 ft | 477 kts | 348° |
| 2026-05-05 14:54 | 46.61449 | 8.81390 | 31012 ft | 475 kts | 348° |
| 2026-05-05 14:55 | 46.64732 | 8.80891 | 30758 ft | 472 kts | 349° |
| 2026-05-05 14:55 | 46.67986 | 8.80393 | 30514 ft | 469 kts | 349° |
| 2026-05-05 14:55 | 46.71225 | 8.79896 | 30272 ft | 467 kts | 349° |
| 2026-05-05 14:55 | 46.74449 | 8.79405 | 29991 ft | 465 kts | 349° |
| 2026-05-05 14:56 | 46.77662 | 8.78915 | 29709 ft | 463 kts | 349° |
| 2026-05-05 14:56 | 46.80859 | 8.78431 | 29414 ft | 460 kts | 349° |
| 2026-05-05 14:56 | 46.84052 | 8.77946 | 29132 ft | 470 kts | 349° |
| 2026-05-05 14:56 | 46.87324 | 8.77440 | 28856 ft | 469 kts | 350° |
| 2026-05-05 14:57 | 46.90532 | 8.76954 | 27967 ft | 464 kts | 350° |
| 2026-05-05 14:57 | 46.93777 | 8.76456 | 27002 ft | 469 kts | 351° |
| 2026-05-05 14:57 | 46.96999 | 8.75965 | 26381 ft | 463 kts | 351° |
| 2026-05-05 14:57 | 47.00197 | 8.75468 | 25606 ft | 461 kts | 351° |
| 2026-05-05 14:58 | 47.03368 | 8.74966 | 24893 ft | 457 kts | 351° |
| 2026-05-05 14:58 | 47.06512 | 8.74458 | 24225 ft | 452 kts | 352° |
| 2026-05-05 14:58 | 47.09646 | 8.73844 | 23582 ft | 446 kts | 349° |
| 2026-05-05 14:58 | 47.12703 | 8.73095 | 22708 ft | 444 kts | 348° |
| 2026-05-05 14:59 | 47.15727 | 8.72256 | 21924 ft | 441 kts | 347° |
| 2026-05-05 14:59 | 47.18724 | 8.71385 | 21236 ft | 437 kts | 347° |
| 2026-05-05 14:59 | 47.21687 | 8.70530 | 20563 ft | 433 kts | 347° |
| 2026-05-05 14:59 | 47.24624 | 8.69437 | 19964 ft | 425 kts | 337° |
| 2026-05-05 15:00 | 47.27210 | 8.67386 | 19120 ft | 422 kts | 320° |
| 2026-05-05 15:00 | 47.28652 | 8.65495 | 18646 ft | 418 kts | 311° |
| 2026-05-05 15:00 | 47.31349 | 8.61384 | 17726 ft | 415 kts | 311° |
| 2026-05-05 15:00 | 47.33349 | 8.58346 | 16998 ft | 412 kts | 311° |
| 2026-05-05 15:01 | 47.35330 | 8.55340 | 16082 ft | 405 kts | 311° |
| 2026-05-05 15:01 | 47.37280 | 8.52386 | 15284 ft | 399 kts | 311° |
| 2026-05-05 15:01 | 47.39206 | 8.49460 | 14556 ft | 396 kts | 310° |
| 2026-05-05 15:01 | 47.41099 | 8.46580 | 13946 ft | 381 kts | 310° |
| 2026-05-05 15:02 | 47.42899 | 8.43845 | 13379 ft | 363 kts | 310° |
| 2026-05-05 15:02 | 47.44636 | 8.41200 | 12571 ft | 355 kts | 310° |
| 2026-05-05 15:02 | 47.46314 | 8.38638 | 12058 ft | 339 kts | 310° |
| 2026-05-05 15:02 | 47.47917 | 8.36190 | 11578 ft | 325 kts | 310° |
| 2026-05-05 15:03 | 47.49464 | 8.33822 | 11109 ft | 314 kts | 309° |
| 2026-05-05 15:03 | 47.50952 | 8.31544 | 10660 ft | 304 kts | 308° |
| 2026-05-05 15:03 | 47.52431 | 8.29276 | 10245 ft | 297 kts | 309° |
| 2026-05-05 15:03 | 47.53848 | 8.27120 | 9801 ft | 288 kts | 309° |
| 2026-05-05 15:04 | 47.55239 | 8.25007 | 9213 ft | 285 kts | 309° |
| 2026-05-05 15:04 | 47.56613 | 8.22918 | 8649 ft | 280 kts | 309° |
| 2026-05-05 15:04 | 47.57949 | 8.20893 | 8228 ft | 271 kts | 309° |
| 2026-05-05 15:04 | 47.59262 | 8.18925 | 7718 ft | 268 kts | 312° |
| 2026-05-05 15:05 | 47.62837 | 8.17467 | 6930 ft | 286 kts | 10° |
| 2026-05-05 15:05 | 47.64606 | 8.18791 | 6620 ft | 289 kts | 41° |
| 2026-05-05 15:05 | 47.65987 | 8.20907 | 6433 ft | 281 kts | 48° |
| 2026-05-05 15:06 | 47.67015 | 8.23289 | 6313 ft | 270 kts | 75° |
| 2026-05-05 15:06 | 47.67167 | 8.25991 | 6171 ft | 253 kts | 105° |
| 2026-05-05 15:06 | 47.66529 | 8.28294 | 6048 ft | 236 kts | 133° |
| 2026-05-05 15:06 | 47.65408 | 8.30001 | 5926 ft | 230 kts | 144° |
| 2026-05-05 15:07 | 47.64225 | 8.31623 | 5684 ft | 232 kts | 143° |
| 2026-05-05 15:07 | 47.63040 | 8.33252 | 5383 ft | 233 kts | 142° |
| 2026-05-05 15:07 | 47.61856 | 8.34883 | 5077 ft | 232 kts | 142° |
| 2026-05-05 15:07 | 47.60674 | 8.36511 | 4773 ft | 231 kts | 142° |
| 2026-05-05 15:08 | 47.59502 | 8.38123 | 4467 ft | 229 kts | 141° |
| 2026-05-05 15:08 | 47.58332 | 8.39731 | 4151 ft | 230 kts | 140° |
| 2026-05-05 15:08 | 47.57159 | 8.41343 | 3842 ft | 230 kts | 141° |
| 2026-05-05 15:08 | 47.55989 | 8.42949 | 3533 ft | 229 kts | 140° |
| 2026-05-05 15:09 | 47.54857 | 8.44504 | 3255 ft | 213 kts | 139° |
| 2026-05-05 15:09 | 47.54141 | 8.45486 | 3045 ft | 202 kts | 139° |
| 2026-05-05 15:09 | 47.53154 | 8.46840 | 2788 ft | 186 kts | 141° |
| 2026-05-05 15:09 | 47.52231 | 8.48105 | 2546 ft | 175 kts | 141° |
| 2026-05-05 15:10 | 47.51363 | 8.49294 | 2304 ft | 165 kts | 141° |
| 2026-05-05 15:10 | 47.50542 | 8.50409 | 2077 ft | 156 kts | 141° |
| 2026-05-05 15:10 | 47.49712 | 8.51590 | 1835 ft | 151 kts | 140° |
| 2026-05-05 15:10 | 47.48992 | 8.52565 | 1672 ft | 145 kts | 140° |
| 2026-05-05 15:11 | 47.48250 | 8.53560 | 1456 ft | 144 kts | 141° |
| 2026-05-05 15:11 | 47.47435 | 8.54664 | 1392 ft | 112 kts | 137° |
| 2026-05-05 15:11 | 47.47027 | 8.55221 | 1387 ft | 71 kts | 137° |
| 2026-05-05 15:11 | 47.46724 | 8.55615 | 1401 ft | 47 kts | 147° |
| 2026-05-05 15:12 | 47.46467 | 8.55727 | 1404 ft | 23 kts | 168° |
| 2026-05-05 15:12 | 47.46353 | 8.55800 | 1403 ft | 16 kts | 141° |
| 2026-05-05 15:12 | 47.46273 | 8.55909 | 1402 ft | 15 kts | 138° |
| 2026-05-05 15:12 | 47.46195 | 8.55992 | 1407 ft | 13 kts | 166° |
| 2026-05-05 15:13 | 47.46108 | 8.55995 | 1407 ft | 12 kts | 186° |
| 2026-05-05 15:13 | 47.46017 | 8.55979 | 1407 ft | 14 kts | 185° |
| 2026-05-05 15:13 | 47.45919 | 8.55947 | 1411 ft | 15 kts | 200° |
| 2026-05-05 15:13 | 47.45828 | 8.55898 | 1410 ft | 14 kts | 200° |
| 2026-05-05 15:14 | 47.45765 | 8.55879 | 1411 ft | 15 kts | 187° |
| 2026-05-05 15:14 | 47.45615 | 8.55854 | 1409 ft | 16 kts | 180° |
| 2026-05-05 15:14 | 47.45537 | 8.55842 | 1408 ft | 8 kts | 189° |
| 2026-05-05 15:14 | 47.45506 | 8.55803 | 1410 ft | 5 kts | 250° |
| 2026-05-05 15:15 | 47.45509 | 8.55751 | 1407 ft | 4 kts | 278° |
| 2026-05-05 15:15 | 47.45530 | 8.55738 | 1410 ft | 3 kts | 2° |
| 2026-05-05 15:15 | 47.45551 | 8.55740 | 1408 ft | 3 kts | 3° |
| 2026-05-05 15:15 | 47.45571 | 8.55743 | 1408 ft | 3 kts | 8° |
| 2026-05-05 15:16 | 47.45589 | 8.55746 | 1408 ft | 0 kts | 4° |